DW5488 Weather Reports


Display with metric or nautical units.
time (UTC)temp
F
wind
direction
speed
MPH
gust
MPH
rain 1hr
in
rain 24hr
in
rain mn
in
humidity
%
barometer
mb
20200221191503 43 309 2.0 6.0 0.00 0.00 0.00 43 1034.5
20200221190001 43 342 3.0 8.0 0.00 0.00 0.00 40 1034.9
20200221184818 42 5 4.0 9.0 0.00 0.00 0.00 44 1035.3
20200221183156 43 355 4.0 8.0 0.00 0.00 0.00 47 1036.1
20200221181728 42 338 3.0 8.0 0.00 0.00 0.00 42 1036.3
20200221180145 42 323 4.0 6.0 0.00 0.00 0.00 48 1036.8
20200221174644 41 338 3.0 9.0 0.00 0.01 0.00 48 1037.0
20200221173119 41 317 4.0 7.0 0.00 0.01 0.00 52 1037.4
20200221171738 40 336 3.0 8.0 0.00 0.01 0.00 49 1037.8
20200221170103 39 335 1.0 6.0 0.00 0.01 0.00 50 1037.8
20200221164725 38 49 1.0 7.0 0.00 0.01 0.00 51 1037.8
20200221163116 38 355 5.0 10.0 0.00 0.01 0.00 58 1037.7
20200221161647 37 32 3.0 7.0 0.00 0.01 0.00 58 1037.5
20200221160155 35 23 1.0 6.0 0.00 0.01 0.00 58 1037.7
20200221154552 35 16 4.0 8.0 0.00 0.01 0.00 61 1037.9
20200221153040 34 5 7.0 10.0 0.00 0.01 0.00 66 1037.9
20200221151555 33 355 7.0 10.0 0.00 0.01 0.00 66 1037.6
20200221150045 32 349 6.0 8.0 0.00 0.01 0.00 68 1037.6
20200221144551 31 343 7.0 10.0 0.00 0.01 0.00 70 1037.6
20200221143054 30 5 6.0 8.0 0.00 0.01 0.00 74 1037.7
20200221141531 29 341 7.0 10.0 0.00 0.01 0.00 76 1037.4
20200221140109 29 350 6.0 8.0 0.00 0.01 0.00 77 1037.3
20200221134527 28 355 4.0 7.0 0.00 0.01 0.00 79 1037.2
20200221133021 28 346 4.0 5.0 0.00 0.01 0.00 80 1036.8
20200221131524 28 342 1.0 2.0 0.00 0.01 0.00 83 1036.7
20200221130019 28 342 0.0 2.0 0.00 0.01 0.00 82 1036.8
20200221124512 28 342 1.0 2.0 0.00 0.01 0.00 80 1036.7
20200221123022 29 342 0.0 5.0 0.00 0.01 0.00 79 1036.6
20200221121515 29 348 4.0 6.0 0.00 0.01 0.00 79 1036.3
20200221120009 29 355 4.0 6.0 0.00 0.01 0.00 77 1036.0
20200221114508 29 348 5.0 9.0 0.00 0.01 0.00 77 1036.0
20200221113005 30 355 7.0 10.0 0.00 0.01 0.00 77 1035.9
20200221111502 30 351 7.0 9.0 0.00 0.01 0.00 77 1036.0
20200221110442 30 355 7.0 10.0 0.00 0.01 0.00 77 1035.7
20200221104836 30 346 5.0 10.0 0.00 0.02 0.00 77 1035.5
20200221103149 31 355 6.0 11.0 0.00 0.02 0.00 77 1035.4
20200221101645 31 336 7.0 9.0 0.00 0.02 0.00 78 1035.4
20200221100217 31 338 7.0 10.0 0.00 0.02 0.00 78 1035.6
20200221094649 31 336 7.0 9.0 0.00 0.03 0.00 79 1035.5
20200221093129 31 344 6.0 8.0 0.00 0.03 0.00 78 1035.7
20200221091622 31 342 7.0 10.0 0.00 0.03 0.00 78 1035.8
20200221090152 32 355 7.0 12.0 0.00 0.03 0.00 78 1035.7
20200221084621 32 355 7.0 10.0 0.00 0.07 0.00 79 1035.9
20200221083336 32 355 7.0 9.0 0.00 0.07 0.00 79 1036.2
20200221081652 32 355 5.0 7.0 0.00 0.07 0.00 80 1036.3
20200221080112 32 355 6.0 8.0 0.00 0.07 0.00 79 1036.5
20200221074635 33 355 6.0 9.0 0.00 0.12 0.00 79 1036.7
20200221073057 33 5 5.0 7.0 0.00 0.12 0.00 78 1036.6
20200221071637 33 355 5.0 8.0 0.00 0.12 0.00 78 1036.6
20200221070045 34 337 5.0 6.0 0.00 0.12 0.00 77 1036.4
20200221064532 34 355 6.0 8.0 0.00 0.15 0.00 76 1036.3
20200221063118 34 355 7.0 10.0 0.00 0.15 0.00 76 1036.0
20200221061539 35 355 7.0 10.0 0.00 0.15 0.00 75 1036.2
20200221060048 35 350 5.0 8.0 0.00 0.15 0.00 77 1036.3
20200221054606 35 355 5.0 8.0 0.00 0.17 0.15 77 1036.1
20200221053038 35 355 5.0 7.0 0.00 0.17 0.15 78 1036.2
20200221051540 35 349 5.0 8.0 0.00 0.17 0.15 78 1036.1
20200221050024 35 5 4.0 8.0 0.00 0.17 0.15 80 1035.9
20200221044514 36 350 6.0 7.0 0.00 0.21 0.15 79 1035.8
20200221043013 36 355 5.0 8.0 0.00 0.21 0.15 79 1035.9
20200221041517 37 348 5.0 8.0 0.00 0.21 0.15 77 1035.8
20200221040012 37 346 7.0 10.0 0.00 0.21 0.15 75 1035.8
20200221034507 38 348 8.0 13.0 0.00 0.35 0.15 75 1035.6
20200221033010 38 355 9.0 12.0 0.00 0.35 0.15 76 1035.4
20200221031647 38 350 6.0 9.0 0.00 0.35 0.15 76 1035.4
20200221030214 38 346 5.0 9.0 0.00 0.35 0.15 75 1035.2
20200221024632 39 346 7.0 10.0 0.00 0.46 0.15 72 1035.0
20200221023131 39 355 8.0 11.0 0.00 0.46 0.15 72 1034.8
20200221021601 39 350 9.0 13.0 0.00 0.46 0.15 72 1034.6
20200221020137 40 349 9.0 12.0 0.00 0.46 0.15 72 1034.6
20200221014701 40 355 10.0 12.0 0.00 0.46 0.15 73 1034.3
20200221013054 40 10 10.0 15.0 0.00 0.46 0.15 73 1034.1
20200221011704 41 351 10.0 16.0 0.00 0.46 0.15 72 1034.0
20200221010136 41 15 15.0 20.0 0.00 0.46 0.15 70 1033.7
20200221004633 41 355 9.0 15.0 0.00 0.48 0.15 72 1033.2
20200221003147 42 355 10.0 16.0 0.00 0.48 0.15 71 1033.0
20200221001546 42 340 13.0 19.0 0.00 0.48 0.15 70 1032.7
20200221000101 43 342 14.0 25.0 0.00 0.48 0.15 68 1032.5
20200220234556 44 351 12.0 19.0 0.00 0.56 0.15 69 1032.4
20200220233105 44 5 17.0 26.0 0.00 0.56 0.15 66 1032.3
20200220231552 45 332 18.0 24.0 0.00 0.56 0.15 68 1032.2
20200220230025 45 331 15.0 23.0 0.00 0.56 0.15 68 1032.0
20200220224612 45 340 17.0 27.0 0.00 0.60 0.15 66 1031.9
20200220223031 45 343 19.0 25.0 0.00 0.60 0.15 68 1031.6
20200220221603 47 344 22.0 27.0 0.00 0.60 0.15 66 1031.4
20200220220121 48 348 17.0 26.0 0.00 0.60 0.15 69 1031.2
20200220214528 48 344 22.0 30.0 0.00 0.64 0.15 66 1031.0
20200220213035 49 342 20.0 24.0 0.00 0.64 0.15 67 1030.9
20200220211526 50 345 19.0 27.0 0.00 0.64 0.15 68 1030.7
20200220210020 50 350 22.0 28.0 0.00 0.64 0.15 62 1030.5
20200220204525 51 355 16.0 27.0 0.00 0.64 0.15 61 1030.4
20200220203103 51 5 18.0 27.0 0.00 0.64 0.15 65 1030.3
20200220201557 51 348 17.0 25.0 0.00 0.64 0.15 64 1030.0
20200220200023 51 355 14.0 26.0 0.00 0.64 0.15 62 1030.1
20200220194514 52 360 14.0 23.0 0.00 0.64 0.15 64 1030.1
20200220193044 51 346 14.0 23.0 0.00 0.64 0.15 65 1030.2